createdAt,value
2023-04-14T00:00:27.910Z,10.02
2023-04-14T00:02:54.434Z,10.04
2023-04-14T00:05:21.196Z,10.05
2023-04-14T00:07:47.676Z,10.32
2023-04-14T00:10:14.145Z,10.30
2023-04-14T00:12:40.575Z,10.04
2023-04-14T00:15:06.997Z,9.52
2023-04-14T00:17:33.525Z,9.44
2023-04-14T00:20:00.025Z,9.60
2023-04-14T00:22:26.563Z,9.54
2023-04-14T00:24:53.082Z,9.48
2023-04-14T00:27:19.543Z,9.47
2023-04-14T00:29:46.135Z,9.83
2023-04-14T00:32:12.600Z,9.50
2023-04-14T00:34:39.017Z,9.77
2023-04-14T00:37:05.488Z,9.82
2023-04-14T00:39:31.964Z,9.80
2023-04-14T00:41:58.374Z,9.87
2023-04-14T00:44:25.694Z,9.84
2023-04-14T00:46:52.242Z,9.84
2023-04-14T00:49:20.186Z,9.85
2023-04-14T00:51:46.618Z,9.62
2023-04-14T00:54:13.384Z,9.45
2023-04-14T00:56:39.847Z,9.47
2023-04-14T00:59:06.489Z,9.48
2023-04-14T01:01:33.718Z,9.50
2023-04-14T01:04:00.525Z,9.56
2023-04-14T01:06:27.372Z,9.51
2023-04-14T01:08:53.793Z,9.51
2023-04-14T01:11:20.231Z,9.34
2023-04-14T01:13:46.651Z,9.42
2023-04-14T01:16:13.104Z,9.60
2023-04-14T01:18:39.553Z,9.55
2023-04-14T01:21:06.541Z,9.28
2023-04-14T01:23:34.889Z,9.29
2023-04-14T01:26:01.310Z,9.22
2023-04-14T01:28:27.731Z,9.39
2023-04-14T01:30:54.173Z,9.38
2023-04-14T01:33:20.600Z,9.37
2023-04-14T01:35:47.102Z,9.47
2023-04-14T01:38:13.528Z,9.04
2023-04-14T01:40:39.964Z,9.19
2023-04-14T01:43:06.565Z,9.28
2023-04-14T01:45:33.048Z,9.35
2023-04-14T01:47:59.598Z,9.41
2023-04-14T01:50:26.081Z,9.45
2023-04-14T01:52:54.330Z,9.56
2023-04-14T01:55:20.965Z,9.63
2023-04-14T01:57:47.427Z,9.34
2023-04-14T02:00:13.901Z,9.10
2023-04-14T02:02:40.522Z,9.13
2023-04-14T02:05:07.456Z,9.02
2023-04-14T02:07:33.891Z,9.21
2023-04-14T02:10:00.618Z,9.27
2023-04-14T02:12:28.068Z,9.26
2023-04-14T02:14:54.498Z,9.30
2023-04-14T02:17:21.853Z,9.24
2023-04-14T02:19:48.388Z,9.33
2023-04-14T02:22:14.812Z,9.44
2023-04-14T02:24:41.233Z,9.47
2023-04-14T02:27:07.727Z,9.32
2023-04-14T02:29:34.157Z,9.35
2023-04-14T02:32:00.681Z,9.29
2023-04-14T02:34:27.089Z,9.30
2023-04-14T02:36:53.542Z,9.30
2023-04-14T02:39:21.192Z,9.26
2023-04-14T02:41:47.674Z,9.29
2023-04-14T02:44:14.107Z,9.27
2023-04-14T02:46:40.731Z,9.29
2023-04-14T02:49:07.505Z,9.33
2023-04-14T02:51:33.959Z,9.02
2023-04-14T02:54:00.457Z,8.99
2023-04-14T02:56:26.910Z,8.93
2023-04-14T02:58:54.152Z,8.74
2023-04-14T03:01:20.600Z,8.61
2023-04-14T03:03:47.111Z,8.53
2023-04-14T03:06:15.688Z,8.47
2023-04-14T03:08:42.190Z,8.56
2023-04-14T03:11:08.627Z,8.44
2023-04-14T03:13:35.075Z,8.30
2023-04-14T03:16:01.564Z,8.57
2023-04-14T03:18:28.114Z,8.59
2023-04-14T03:20:56.023Z,8.69
2023-04-14T03:23:23.111Z,8.75
2023-04-14T03:25:49.561Z,8.69
2023-04-14T03:28:16.176Z,8.74
2023-04-14T03:30:42.587Z,8.80
2023-04-14T03:33:09.059Z,8.68
2023-04-14T03:35:35.490Z,8.19
2023-04-14T03:38:02.617Z,8.09
2023-04-14T03:40:32.244Z,8.19
2023-04-14T03:42:58.723Z,8.20
2023-04-14T03:45:25.223Z,8.25
2023-04-14T03:47:53.708Z,8.41
2023-04-14T03:50:22.072Z,8.36
2023-04-14T03:52:48.546Z,8.34
2023-04-14T03:55:14.967Z,8.45
2023-04-14T03:57:41.393Z,8.36
2023-04-14T04:00:09.199Z,8.16
2023-04-14T04:02:36.608Z,8.13
2023-04-14T04:05:03.326Z,8.29
2023-04-14T04:07:29.857Z,8.36
2023-04-14T04:09:56.359Z,8.23
2023-04-14T04:12:22.758Z,8.05
2023-04-14T04:14:49.271Z,8.13
2023-04-14T04:17:16.508Z,7.94
2023-04-14T04:19:42.980Z,8.28
2023-04-14T04:22:09.391Z,8.33
2023-04-14T04:24:35.869Z,8.36
2023-04-14T04:27:02.304Z,8.16
2023-04-14T04:29:28.852Z,7.96
2023-04-14T04:31:55.811Z,7.81
2023-04-14T04:34:23.575Z,7.98
2023-04-14T04:36:49.995Z,7.93
2023-04-14T04:39:16.432Z,7.94
2023-04-14T04:41:43.003Z,8.09
2023-04-14T04:44:09.992Z,8.16
2023-04-14T04:46:36.583Z,8.17
2023-04-14T04:49:03.367Z,7.99
2023-04-14T04:51:30.055Z,8.10
2023-04-14T04:53:56.476Z,8.27
2023-04-14T04:56:22.898Z,8.38
2023-04-14T04:58:49.407Z,8.05
2023-04-14T05:01:17.072Z,8.19
2023-04-14T05:03:43.673Z,8.35
2023-04-14T05:06:10.096Z,7.94
2023-04-14T05:08:36.581Z,8.19
2023-04-14T05:11:03.017Z,8.21
2023-04-14T05:13:29.495Z,8.03
2023-04-14T05:15:55.929Z,7.99
2023-04-14T05:18:22.362Z,7.89
2023-04-14T05:20:48.784Z,8.16
2023-04-14T05:23:15.231Z,8.17
2023-04-14T05:25:41.705Z,7.79
2023-04-14T05:28:08.590Z,7.88
2023-04-14T05:30:35.020Z,8.00
2023-04-14T05:33:01.887Z,8.00
2023-04-14T05:35:28.414Z,7.93
2023-04-14T05:37:54.836Z,7.69
2023-04-14T05:40:22.436Z,7.41
2023-04-14T05:42:48.842Z,7.32
2023-04-14T05:45:15.625Z,7.22
2023-04-14T05:47:42.137Z,7.42
2023-04-14T05:50:08.726Z,7.63
2023-04-14T05:52:37.062Z,7.74
2023-04-14T05:55:03.496Z,7.63
2023-04-14T05:57:29.942Z,7.72
2023-04-14T05:59:58.202Z,7.62
2023-04-14T06:02:25.052Z,7.82
2023-04-14T06:04:51.713Z,7.56
2023-04-14T06:07:18.267Z,7.68
2023-04-14T06:09:46.628Z,7.82
2023-04-14T06:12:14.316Z,7.72
2023-04-14T06:14:40.958Z,7.72
2023-04-14T06:17:07.374Z,7.67
2023-04-14T06:19:33.894Z,7.89
2023-04-14T06:22:00.419Z,7.91
2023-04-14T06:24:26.905Z,7.87
2023-04-14T06:26:53.325Z,8.09
2023-04-14T06:29:19.849Z,8.07
2023-04-14T06:31:46.473Z,8.14
2023-04-14T06:34:13.084Z,7.90
2023-04-14T06:36:39.519Z,8.05
2023-04-14T06:39:06.156Z,7.93
2023-04-14T06:41:32.583Z,7.93
2023-04-14T06:43:59.005Z,7.71
2023-04-14T06:46:25.653Z,8.03
2023-04-14T06:48:52.170Z,7.89
2023-04-14T06:51:18.721Z,7.80
2023-04-14T06:53:45.207Z,7.83
2023-04-14T06:56:11.639Z,7.62
2023-04-14T06:58:38.194Z,7.78
2023-04-14T07:01:04.751Z,7.90
2023-04-14T07:03:34.811Z,7.76
2023-04-14T07:06:01.239Z,7.97
2023-04-14T07:08:32.217Z,8.10
2023-04-14T07:10:58.653Z,8.02
2023-04-14T07:13:25.052Z,7.96
2023-04-14T07:15:51.600Z,7.78
2023-04-14T07:18:18.076Z,7.64
2023-04-14T07:20:44.667Z,7.97
2023-04-14T07:23:11.280Z,7.84
2023-04-14T07:25:37.738Z,7.91
2023-04-14T07:28:04.702Z,7.95
2023-04-14T07:30:32.101Z,7.90
2023-04-14T07:32:58.704Z,7.86
2023-04-14T07:35:25.210Z,7.91
2023-04-14T07:37:51.699Z,7.85
2023-04-14T07:40:18.239Z,7.85
2023-04-14T07:42:44.708Z,7.95
2023-04-14T07:45:11.230Z,7.91
2023-04-14T07:47:37.773Z,7.97
2023-04-14T07:50:04.205Z,8.17
2023-04-14T07:52:30.714Z,7.94
2023-04-14T07:54:57.134Z,8.06
2023-04-14T07:57:23.704Z,8.05
2023-04-14T07:59:50.168Z,7.86
2023-04-14T08:02:16.703Z,7.82
2023-04-14T08:04:43.429Z,8.09
2023-04-14T08:07:09.850Z,7.92
2023-04-14T08:09:36.291Z,8.00
2023-04-14T08:12:02.961Z,8.08
2023-04-14T08:14:29.430Z,8.00
2023-04-14T08:16:55.844Z,8.06
2023-04-14T08:19:22.272Z,7.89
2023-04-14T08:21:48.684Z,8.19
2023-04-14T08:24:15.118Z,8.21
2023-04-14T08:26:41.599Z,7.95
2023-04-14T08:29:08.034Z,8.05
2023-04-14T08:31:34.787Z,8.04
2023-04-14T08:34:01.237Z,8.06
2023-04-14T08:36:28.032Z,8.33
2023-04-14T08:38:54.470Z,8.05
2023-04-14T08:41:21.561Z,8.13
2023-04-14T08:43:47.970Z,7.98
2023-04-14T08:46:14.439Z,8.30
2023-04-14T08:48:40.965Z,8.13
2023-04-14T08:51:07.373Z,7.98
2023-04-14T08:53:33.855Z,8.18
2023-04-14T08:56:00.434Z,8.13
2023-04-14T08:58:26.905Z,7.99
2023-04-14T09:00:53.358Z,7.75
2023-04-14T09:03:20.071Z,8.02
2023-04-14T09:05:46.644Z,7.96
2023-04-14T09:08:13.094Z,7.80
2023-04-14T09:10:41.047Z,8.16
2023-04-14T09:13:07.829Z,7.88
2023-04-14T09:15:34.262Z,7.71
2023-04-14T09:18:00.722Z,7.81
2023-04-14T09:20:38.964Z,8.21
2023-04-14T09:23:07.002Z,8.08
2023-04-14T09:25:33.892Z,8.00
2023-04-14T09:28:00.327Z,8.09
2023-04-14T09:30:26.889Z,8.06
2023-04-14T09:32:57.144Z,7.87
2023-04-14T09:35:23.574Z,7.91
2023-04-14T09:37:50.018Z,7.98
2023-04-14T09:40:16.461Z,8.05
2023-04-14T09:42:43.188Z,7.96
2023-04-14T09:45:09.790Z,8.09
2023-04-14T09:47:36.314Z,7.88
2023-04-14T09:50:03.769Z,7.90
2023-04-14T09:52:30.617Z,7.80
2023-04-14T09:54:57.031Z,7.90
2023-04-14T09:57:23.459Z,8.21
2023-04-14T09:59:49.898Z,7.98
2023-04-14T10:02:16.607Z,8.05
2023-04-14T10:04:43.226Z,8.16
2023-04-14T10:07:11.373Z,8.03
2023-04-14T10:09:38.016Z,8.09
2023-04-14T10:12:04.499Z,7.96
2023-04-14T10:14:30.951Z,8.02
2023-04-14T10:16:57.836Z,8.01
2023-04-14T10:19:24.289Z,7.94
2023-04-14T10:21:50.714Z,8.00
2023-04-14T10:24:17.189Z,8.14
2023-04-14T10:26:47.321Z,8.03
2023-04-14T10:29:13.742Z,7.88
2023-04-14T10:31:40.364Z,8.10
2023-04-14T10:34:07.094Z,7.86
2023-04-14T10:36:36.938Z,7.93
2023-04-14T10:39:03.726Z,7.92
2023-04-14T10:41:30.343Z,7.99
2023-04-14T10:43:56.809Z,8.08
2023-04-14T10:46:24.749Z,8.32
2023-04-14T10:48:51.448Z,8.03
2023-04-14T10:51:18.241Z,8.00
2023-04-14T10:53:45.228Z,8.24
2023-04-14T10:56:12.295Z,8.22
2023-04-14T10:58:38.962Z,8.09
2023-04-14T11:01:05.463Z,8.34
2023-04-14T11:03:35.030Z,8.22
2023-04-14T11:06:01.983Z,8.07
2023-04-14T11:08:28.438Z,8.17
2023-04-14T11:10:54.871Z,7.91
2023-04-14T11:13:21.373Z,7.96
2023-04-14T11:15:48.153Z,7.88
2023-04-14T11:18:14.802Z,7.97
2023-04-14T11:20:42.629Z,8.05
2023-04-14T11:23:09.806Z,8.21
2023-04-14T11:25:36.212Z,8.19
2023-04-14T11:28:03.411Z,8.13
2023-04-14T11:30:29.902Z,8.14
2023-04-14T11:32:57.933Z,8.09
2023-04-14T11:35:24.482Z,8.33
2023-04-14T11:37:50.997Z,8.09
2023-04-14T11:40:17.457Z,8.03
2023-04-14T11:42:43.884Z,7.94
2023-04-14T11:45:10.299Z,8.11
2023-04-14T11:47:36.878Z,8.17
2023-04-14T11:50:04.990Z,8.25
2023-04-14T11:52:31.729Z,8.02
2023-04-14T11:54:58.229Z,8.10
2023-04-14T11:57:24.664Z,8.00
2023-04-14T11:59:51.718Z,8.31
2023-04-14T12:02:18.382Z,7.98
2023-04-14T12:04:46.075Z,8.21
2023-04-14T12:07:12.940Z,8.23
2023-04-14T12:09:39.707Z,8.20
2023-04-14T12:12:06.152Z,8.17
2023-04-14T12:14:32.578Z,8.34
2023-04-14T12:16:59.018Z,8.28
2023-04-14T12:19:25.517Z,8.20
2023-04-14T12:21:53.215Z,8.30
2023-04-14T12:24:19.653Z,8.21
2023-04-14T12:26:46.080Z,8.20
2023-04-14T12:29:12.523Z,8.29
2023-04-14T12:31:40.282Z,8.24
2023-04-14T12:34:07.002Z,8.38
2023-04-14T12:36:48.955Z,8.37
2023-04-14T12:39:16.852Z,8.46
2023-04-14T12:41:43.443Z,8.49
2023-04-14T12:44:10.416Z,8.57
2023-04-14T12:46:36.897Z,8.49
2023-04-14T12:49:03.601Z,8.63
2023-04-14T12:51:30.446Z,8.56
2023-04-14T12:53:57.048Z,8.64
2023-04-14T12:56:23.784Z,8.39
2023-04-14T12:58:51.543Z,8.58
2023-04-14T13:01:18.220Z,8.32
2023-04-14T13:03:49.728Z,8.61
2023-04-14T13:06:19.278Z,8.33
2023-04-14T13:08:46.221Z,8.17
2023-04-14T13:11:12.670Z,8.34
2023-04-14T13:13:39.174Z,8.36
2023-04-14T13:16:13.026Z,8.35
2023-04-14T13:18:41.429Z,8.46
2023-04-14T13:21:07.998Z,8.31
2023-04-14T13:23:34.466Z,8.55
2023-04-14T13:26:00.983Z,8.63
2023-04-14T13:28:27.531Z,8.33
2023-04-14T13:30:54.049Z,8.53
2023-04-14T13:33:20.489Z,8.54
2023-04-14T13:35:46.928Z,8.10
2023-04-14T13:38:13.809Z,8.60
2023-04-14T13:40:40.657Z,8.31
2023-04-14T13:43:08.546Z,8.45
2023-04-14T13:45:36.026Z,8.41
2023-04-14T13:48:02.856Z,8.65
2023-04-14T13:50:29.829Z,8.44
2023-04-14T13:52:56.337Z,8.56
2023-04-14T13:55:22.767Z,8.45
2023-04-14T13:57:49.192Z,8.72
2023-04-14T14:00:15.872Z,8.44
2023-04-14T14:02:42.484Z,8.42
2023-04-14T14:05:09.088Z,8.44
2023-04-14T14:07:35.757Z,8.56
2023-04-14T14:10:02.203Z,8.33
2023-04-14T14:12:28.612Z,8.44
2023-04-14T14:14:55.099Z,8.64
2023-04-14T14:17:21.600Z,8.70
2023-04-14T14:19:48.439Z,8.73
2023-04-14T14:22:15.067Z,8.71
2023-04-14T14:24:41.502Z,8.70
2023-04-14T14:27:07.952Z,8.82
2023-04-14T14:29:35.285Z,8.94
2023-04-14T14:32:02.162Z,8.67
2023-04-14T14:34:28.614Z,8.95
2023-04-14T14:36:55.398Z,8.53
2023-04-14T14:39:21.984Z,8.51
2023-04-14T14:41:48.704Z,8.65
2023-04-14T14:44:15.153Z,8.60
2023-04-14T14:46:43.107Z,8.72
2023-04-14T14:49:09.589Z,8.79
2023-04-14T14:51:36.379Z,8.54
2023-04-14T14:54:09.918Z,8.64
2023-04-14T14:56:36.874Z,8.83
2023-04-14T14:59:03.485Z,8.81
2023-04-14T15:01:29.938Z,8.65
2023-04-14T15:03:57.197Z,8.66
2023-04-14T15:06:23.741Z,8.82
2023-04-14T15:08:50.335Z,8.84
2023-04-14T15:11:16.769Z,8.67
2023-04-14T15:13:46.252Z,8.68
2023-04-14T15:16:12.910Z,8.36
2023-04-14T15:18:39.388Z,8.56
2023-04-14T15:21:05.834Z,8.81
2023-04-14T15:23:37.334Z,8.69
2023-04-14T15:26:03.789Z,8.68
2023-04-14T15:28:30.805Z,8.61
2023-04-14T15:30:57.235Z,8.65
2023-04-14T15:33:24.039Z,8.68
2023-04-14T15:35:50.475Z,8.74
2023-04-14T15:38:17.058Z,8.92
2023-04-14T15:40:43.475Z,9.00
2023-04-14T15:43:09.963Z,8.92
2023-04-14T15:45:36.478Z,8.71
2023-04-14T15:48:02.986Z,8.63
2023-04-14T15:50:29.495Z,8.54
2023-04-14T15:52:56.064Z,8.66
2023-04-14T15:55:22.499Z,8.68
2023-04-14T15:57:49.338Z,8.73
2023-04-14T16:00:16.832Z,8.67
2023-04-14T16:02:43.370Z,8.78
2023-04-14T16:05:10.111Z,8.61
2023-04-14T16:07:36.635Z,8.64
2023-04-14T16:10:03.410Z,8.66
2023-04-14T16:12:30.711Z,8.75
2023-04-14T16:14:57.455Z,8.82
2023-04-14T16:17:27.108Z,8.79
2023-04-14T16:19:53.930Z,8.67
2023-04-14T16:22:20.626Z,8.51
2023-04-14T16:24:47.153Z,8.57
2023-04-14T16:27:13.695Z,8.67
2023-04-14T16:29:41.796Z,8.47
2023-04-14T16:32:08.575Z,8.64
2023-04-14T16:34:35.250Z,8.63
2023-04-14T16:37:01.931Z,8.53
2023-04-14T16:39:29.837Z,8.39
2023-04-14T16:41:56.864Z,8.49
2023-04-14T16:44:23.304Z,8.55
2023-04-14T16:46:49.802Z,8.45
2023-04-14T16:49:16.369Z,8.52
2023-04-14T16:51:43.692Z,8.44
2023-04-14T16:54:10.143Z,8.49
2023-04-14T16:56:37.537Z,8.59
2023-04-14T16:59:04.570Z,8.76
2023-04-14T17:01:31.993Z,8.44
2023-04-14T17:03:58.777Z,8.36
2023-04-14T17:06:25.372Z,8.44
2023-04-14T17:08:51.814Z,8.44
2023-04-14T17:11:18.287Z,8.36
2023-04-14T17:13:44.838Z,8.20
2023-04-14T17:16:11.693Z,8.23
2023-04-14T17:18:38.450Z,8.38
2023-04-14T17:21:05.738Z,8.16
2023-04-14T17:23:32.195Z,8.26
2023-04-14T17:25:58.844Z,8.10
2023-04-14T17:28:26.889Z,8.05
2023-04-14T17:30:53.372Z,8.29
2023-04-14T17:33:20.981Z,8.27
2023-04-14T17:35:47.446Z,8.05
2023-04-14T17:38:13.905Z,8.15
2023-04-14T17:40:40.367Z,8.16
2023-04-14T17:43:06.820Z,8.30
2023-04-14T17:45:34.875Z,8.16
2023-04-14T17:48:01.393Z,8.28
2023-04-14T17:50:27.917Z,8.18
2023-04-14T17:52:54.414Z,8.06
2023-04-14T17:55:21.679Z,8.01
2023-04-14T17:57:48.235Z,7.95
2023-04-14T18:00:15.022Z,8.06
2023-04-14T18:02:41.625Z,8.11
2023-04-14T18:05:08.211Z,8.05
2023-04-14T18:07:34.804Z,7.90
2023-04-14T18:10:01.250Z,7.87
2023-04-14T18:12:27.865Z,8.03
2023-04-14T18:14:54.344Z,7.92
2023-04-14T18:17:20.866Z,7.88
2023-04-14T18:19:47.358Z,7.89
2023-04-14T18:22:13.775Z,7.92
2023-04-14T18:29:39.308Z,8.10
2023-04-14T18:32:05.765Z,7.96
2023-04-14T18:34:32.293Z,7.81
2023-04-14T18:36:58.965Z,7.87
2023-04-14T18:39:25.469Z,7.89
2023-04-14T18:41:51.991Z,7.99
2023-04-14T18:44:18.471Z,7.98
2023-04-14T18:46:44.998Z,8.10
2023-04-14T18:49:11.884Z,7.90
2023-04-14T18:51:38.316Z,7.98
2023-04-14T18:54:04.865Z,8.01
2023-04-14T18:56:31.753Z,7.78
2023-04-14T18:58:58.340Z,7.75
2023-04-14T19:01:24.968Z,8.09
2023-04-14T19:03:51.513Z,7.85
2023-04-14T19:06:18.131Z,7.79
2023-04-14T19:08:44.850Z,7.71
2023-04-14T19:11:11.977Z,7.85
2023-04-14T19:13:38.816Z,7.88
2023-04-14T19:16:06.005Z,7.78
2023-04-14T19:18:33.033Z,7.86
2023-04-14T19:20:59.504Z,7.66
2023-04-14T19:23:25.969Z,7.90
2023-04-14T19:25:53.681Z,7.71
2023-04-14T19:28:20.099Z,7.63
2023-04-14T19:30:46.641Z,7.71
2023-04-14T19:33:13.263Z,7.78
2023-04-14T19:35:39.752Z,7.83
2023-04-14T19:38:07.923Z,7.78
2023-04-14T19:40:34.340Z,7.75
2023-04-14T19:43:01.258Z,7.73
2023-04-14T19:45:27.679Z,7.60
2023-04-14T19:47:54.413Z,7.68
2023-04-14T19:50:22.855Z,7.62
2023-04-14T19:52:51.471Z,7.61
2023-04-14T19:55:17.952Z,7.46
2023-04-14T19:57:44.357Z,7.64
2023-04-14T20:00:12.322Z,7.54
2023-04-14T20:02:38.859Z,7.81
2023-04-14T20:05:05.617Z,7.87
2023-04-14T20:07:32.106Z,7.94
2023-04-14T20:10:00.407Z,7.77
2023-04-14T20:12:26.917Z,7.72
2023-04-14T20:14:57.869Z,7.70
2023-04-14T20:17:27.434Z,7.65
2023-04-14T20:19:53.973Z,7.65
2023-04-14T20:22:20.379Z,7.55
2023-04-14T20:24:46.816Z,7.61
2023-04-14T20:27:13.595Z,7.64
2023-04-14T20:29:40.297Z,7.50
2023-04-14T20:32:09.154Z,7.43
2023-04-14T20:34:38.705Z,7.54
2023-04-14T20:37:06.483Z,7.58
2023-04-14T20:39:33.457Z,7.43
2023-04-14T20:42:00.385Z,7.57
2023-04-14T20:44:27.571Z,7.52
2023-04-14T20:46:54.463Z,7.42
2023-04-14T20:49:20.877Z,7.42
2023-04-14T20:51:48.467Z,7.53
2023-04-14T20:54:14.871Z,7.50
2023-04-14T20:56:41.302Z,7.46
2023-04-14T20:59:07.712Z,7.28
2023-04-14T21:01:34.164Z,7.30
2023-04-14T21:04:00.751Z,7.25
2023-04-14T21:06:27.250Z,7.39
2023-04-14T21:08:53.655Z,7.59
2023-04-14T21:11:20.297Z,7.45
2023-04-14T21:15:30.355Z,7.36
2023-04-14T21:16:33.549Z,7.29
2023-04-14T21:19:00.373Z,7.49
2023-04-14T21:21:27.232Z,7.43
2023-04-14T21:23:53.661Z,7.41
2023-04-14T21:26:20.086Z,7.36
2023-04-14T21:28:46.664Z,7.48
2023-04-14T21:31:13.135Z,7.51
2023-04-14T21:33:41.923Z,7.38
2023-04-14T21:36:09.881Z,7.52
2023-04-14T21:38:36.317Z,7.35
2023-04-14T21:41:02.840Z,7.56
2023-04-14T21:43:29.262Z,7.62
2023-04-14T21:45:56.234Z,7.70
2023-04-14T21:48:23.704Z,7.48
2023-04-14T21:50:50.165Z,7.26
2023-04-14T21:53:16.884Z,7.34
2023-04-14T21:55:43.291Z,7.30
2023-04-14T21:58:09.792Z,7.24
2023-04-14T22:00:37.472Z,7.36
2023-04-14T22:03:04.025Z,7.34
2023-04-14T22:05:30.647Z,7.29
2023-04-14T22:07:57.060Z,7.31
2023-04-14T22:10:23.667Z,7.36
2023-04-14T22:12:51.015Z,7.18
2023-04-14T22:15:17.439Z,7.08
2023-04-14T22:17:44.211Z,7.13
2023-04-14T22:20:10.694Z,7.08
2023-04-14T22:22:37.111Z,7.14
2023-04-14T22:25:03.558Z,7.31
2023-04-14T22:27:29.990Z,7.16
2023-04-14T22:29:56.801Z,7.13
2023-04-14T22:32:23.320Z,7.17
2023-04-14T22:34:49.757Z,7.10
2023-04-14T22:37:16.169Z,7.27
2023-04-14T22:39:43.015Z,7.12
2023-04-14T22:42:09.473Z,7.00
2023-04-14T22:44:35.936Z,7.09
2023-04-14T22:47:02.446Z,7.03
2023-04-14T22:49:28.885Z,6.88
2023-04-14T22:51:55.323Z,7.05
2023-04-14T22:54:21.732Z,7.01
2023-04-14T22:56:48.419Z,7.14
2023-04-14T22:59:15.130Z,6.95
2023-04-14T23:01:41.574Z,6.98
2023-04-14T23:04:08.123Z,7.26
2023-04-14T23:06:34.644Z,7.19
2023-04-14T23:09:01.344Z,7.05
2023-04-14T23:11:27.922Z,7.02
2023-04-14T23:13:54.328Z,7.09
2023-04-14T23:16:20.869Z,7.09
2023-04-14T23:18:52.560Z,7.02
2023-04-14T23:21:19.581Z,7.04
2023-04-14T23:23:46.265Z,7.09
2023-04-14T23:26:13.400Z,7.27
2023-04-14T23:28:39.825Z,7.14
2023-04-14T23:31:06.678Z,7.23
2023-04-14T23:33:33.121Z,7.07
2023-04-14T23:35:59.626Z,7.08
2023-04-14T23:38:26.373Z,6.99
2023-04-14T23:40:58.816Z,6.96
2023-04-14T23:43:25.243Z,7.19
2023-04-14T23:45:52.714Z,7.21
2023-04-14T23:48:19.146Z,7.09
2023-04-14T23:50:58.974Z,7.01
2023-04-14T23:53:29.857Z,7.00
2023-04-14T23:55:56.594Z,6.97
2023-04-14T23:58:26.874Z,7.12
